ADDS METAR Data INFO
IDs: Format: Raw Decoded Include TAF

Data at: 2243 UTC 11 Dec 2017

METAR for:KSFB (Sanford Intl, FL, US)
Text:KSFB 112153Z 27005KT 10SM CLR 16/M03 A3015 RMK AO2 SLP211 T01611033
Temperature: 16.1°C ( 61°F)
Dewpoint: -3.3°C ( 26°F) [RH = 26%]
Pressure (altimeter):30.15 inches Hg (1021.1 mb) [Sea level pressure: 1021.1 mb]
Winds:from the W (270 degrees) at 6 MPH (5 knots; 2.6 m/s)
Visibility:10 or more sm (16+ km)
Ceiling:at least 12,000 feet AGL
Clouds:sky clear below 12,000 feet AGL